createdAt,value
2019-05-30T00:00:16.010Z,20.85
2019-05-30T00:02:39.840Z,20.79
2019-05-30T00:05:13.283Z,20.76
2019-05-30T00:07:45.283Z,20.87
2019-05-30T00:10:19.640Z,20.92
2019-05-30T00:12:51.795Z,20.89
2019-05-30T00:15:24.270Z,20.90
2019-05-30T00:17:56.716Z,20.91
2019-05-30T00:20:29.138Z,20.86
2019-05-30T00:23:01.538Z,20.79
2019-05-30T00:25:33.846Z,20.74
2019-05-30T00:28:06.179Z,20.73
2019-05-30T00:30:38.635Z,20.72
2019-05-30T00:33:10.989Z,20.70
2019-05-30T00:35:46.536Z,20.67
2019-05-30T00:38:20.344Z,20.69
2019-05-30T00:40:52.717Z,20.69
2019-05-30T00:43:24.805Z,20.64
2019-05-30T00:45:57.945Z,20.58
2019-05-30T00:48:30.450Z,20.58
2019-05-30T00:51:04.650Z,20.59
2019-05-30T00:53:36.158Z,20.57
2019-05-30T00:56:07.984Z,20.54
2019-05-30T00:58:40.148Z,20.52
2019-05-30T01:01:12.989Z,20.53
2019-05-30T01:03:45.076Z,20.49
2019-05-30T01:06:17.456Z,20.44
2019-05-30T01:08:49.647Z,20.37
2019-05-30T01:11:22.000Z,20.24
2019-05-30T01:13:54.299Z,20.23
2019-05-30T01:16:26.466Z,20.21
2019-05-30T01:18:59.073Z,20.14
2019-05-30T01:21:31.234Z,20.13
2019-05-30T01:24:03.613Z,20.07
2019-05-30T01:26:36.138Z,20.03
2019-05-30T01:29:08.483Z,19.93
2019-05-30T01:31:40.603Z,19.88
2019-05-30T01:34:13.997Z,19.82
2019-05-30T01:36:46.272Z,19.81
2019-05-30T01:39:18.786Z,19.80
2019-05-30T01:41:51.323Z,19.81
2019-05-30T01:44:24.623Z,19.77
2019-05-30T01:46:58.083Z,19.79
2019-05-30T01:49:30.600Z,19.76
2019-05-30T01:52:04.524Z,19.75
2019-05-30T01:54:36.780Z,19.69
2019-05-30T01:57:09.394Z,19.70
2019-05-30T01:59:41.762Z,19.71
2019-05-30T02:02:14.105Z,19.70
2019-05-30T02:04:46.787Z,19.66
2019-05-30T02:07:19.165Z,19.65
2019-05-30T02:09:51.528Z,19.60
2019-05-30T02:12:23.706Z,19.58
2019-05-30T02:14:55.882Z,19.55
2019-05-30T02:17:28.213Z,19.55
2019-05-30T02:20:01.845Z,19.59
2019-05-30T02:22:34.242Z,19.57
2019-05-30T02:25:10.232Z,19.56
2019-05-30T02:27:42.676Z,19.52
2019-05-30T02:30:15.342Z,19.60
2019-05-30T02:32:48.012Z,19.60
2019-05-30T02:35:20.533Z,19.69
2019-05-30T02:37:52.693Z,19.74
2019-05-30T02:40:25.396Z,19.77
2019-05-30T02:43:01.262Z,19.82
2019-05-30T02:45:34.046Z,19.80
2019-05-30T02:48:07.518Z,19.85
2019-05-30T02:50:40.682Z,19.91
2019-05-30T02:53:14.385Z,19.96
2019-05-30T02:55:46.881Z,20.01
2019-05-30T02:58:19.342Z,20.05
2019-05-30T03:00:51.934Z,20.14
2019-05-30T03:03:24.571Z,20.22
2019-05-30T03:05:56.895Z,20.10
2019-05-30T03:08:31.182Z,20.13
2019-05-30T03:11:07.078Z,20.21
2019-05-30T03:13:38.111Z,20.26
2019-05-30T03:16:11.839Z,20.27
2019-05-30T03:18:45.146Z,20.35
2019-05-30T03:21:17.668Z,20.39
2019-05-30T03:23:50.227Z,20.49
2019-05-30T03:26:22.303Z,20.57
2019-05-30T03:28:55.807Z,20.53
2019-05-30T03:31:30.610Z,20.44
2019-05-30T03:34:08.234Z,20.40
2019-05-30T03:36:36.746Z,20.36
2019-05-30T03:39:10.848Z,20.43
2019-05-30T03:41:42.293Z,20.52
2019-05-30T03:44:15.592Z,20.67
2019-05-30T03:46:49.108Z,20.84
2019-05-30T03:49:24.070Z,20.92
2019-05-30T03:51:58.406Z,21.03
2019-05-30T03:54:33.234Z,21.10
2019-05-30T03:57:09.116Z,21.11
2019-05-30T04:00:02.884Z,21.13
2019-05-30T04:02:57.581Z,21.18
2019-05-30T04:05:43.888Z,21.41
2019-05-30T04:08:19.694Z,21.46
2019-05-30T04:10:55.510Z,21.66
2019-05-30T04:13:51.287Z,21.68
2019-05-30T04:16:23.619Z,21.83
2019-05-30T04:18:56.709Z,21.86
2019-05-30T04:21:29.220Z,21.86
2019-05-30T04:24:04.261Z,22.05
2019-05-30T04:26:37.768Z,22.12
2019-05-30T04:29:12.039Z,22.25
2019-05-30T04:31:44.804Z,22.33
2019-05-30T04:34:19.442Z,22.43
2019-05-30T04:36:53.369Z,22.39
2019-05-30T04:39:25.373Z,22.57
2019-05-30T04:41:58.666Z,22.52
2019-05-30T04:44:31.967Z,22.75
2019-05-30T04:47:04.384Z,23.01
2019-05-30T04:49:36.808Z,23.23
2019-05-30T04:52:14.263Z,23.43
2019-05-30T04:54:47.230Z,23.55
2019-05-30T04:57:25.688Z,23.65
2019-05-30T04:59:55.812Z,23.73
2019-05-30T05:02:28.346Z,24.04
2019-05-30T05:05:00.868Z,24.15
2019-05-30T05:07:34.354Z,24.14
2019-05-30T05:10:09.144Z,24.07
2019-05-30T05:12:41.417Z,24.14
2019-05-30T05:15:14.332Z,24.23
2019-05-30T05:17:46.558Z,24.40
2019-05-30T05:20:19.608Z,24.62
2019-05-30T05:22:51.934Z,24.76
2019-05-30T05:25:25.635Z,24.96
2019-05-30T05:27:58.827Z,25.03
2019-05-30T05:30:31.208Z,25.07
2019-05-30T05:33:03.288Z,25.14
2019-05-30T05:35:36.200Z,25.20
2019-05-30T05:38:08.774Z,25.20
2019-05-30T05:40:41.159Z,25.37
2019-05-30T05:43:13.670Z,25.47
2019-05-30T05:45:45.831Z,25.23
2019-05-30T05:48:18.352Z,25.50
2019-05-30T05:50:50.641Z,25.34
2019-05-30T05:53:23.097Z,25.44
2019-05-30T05:55:57.760Z,25.75
2019-05-30T05:58:30.753Z,25.76
2019-05-30T06:01:03.255Z,25.84
2019-05-30T06:03:35.831Z,25.99
2019-05-30T06:06:08.035Z,25.96
2019-05-30T06:08:40.089Z,25.93
2019-05-30T06:11:13.196Z,26.12
2019-05-30T06:13:45.699Z,26.20
2019-05-30T06:16:19.667Z,26.19
2019-05-30T06:18:51.275Z,26.26
2019-05-30T06:21:23.535Z,26.07
2019-05-30T06:23:56.324Z,26.04
2019-05-30T06:26:28.643Z,26.17
2019-05-30T06:29:01.127Z,26.77
2019-05-30T06:31:33.330Z,26.87
2019-05-30T06:34:05.847Z,26.85
2019-05-30T06:36:38.040Z,26.98
2019-05-30T06:39:10.816Z,26.91
2019-05-30T06:41:43.152Z,27.14
2019-05-30T06:44:15.570Z,27.15
2019-05-30T06:46:47.816Z,27.11
2019-05-30T06:49:20.661Z,27.37
2019-05-30T06:51:53.002Z,27.54
2019-05-30T06:54:25.978Z,27.46
2019-05-30T06:57:01.272Z,27.60
2019-05-30T06:59:33.802Z,27.67
2019-05-30T07:02:06.534Z,27.72
2019-05-30T07:04:50.942Z,27.90
2019-05-30T07:07:15.248Z,28.26
2019-05-30T07:09:48.635Z,28.36
2019-05-30T07:12:20.930Z,28.71
2019-05-30T07:14:53.647Z,28.71
2019-05-30T07:17:27.445Z,28.72
2019-05-30T07:19:59.764Z,28.53
2019-05-30T07:22:32.001Z,28.58
2019-05-30T07:25:05.840Z,29.00
2019-05-30T07:27:37.781Z,29.18
2019-05-30T07:30:10.468Z,29.47
2019-05-30T07:32:43.816Z,29.40
2019-05-30T07:35:16.277Z,29.17
2019-05-30T07:37:48.547Z,29.17
2019-05-30T07:40:22.044Z,28.65
2019-05-30T07:42:54.366Z,28.65
2019-05-30T07:45:29.016Z,28.70
2019-05-30T07:48:01.188Z,28.53
2019-05-30T07:50:34.545Z,28.45
2019-05-30T07:53:11.809Z,28.79
2019-05-30T07:55:45.933Z,29.07
2019-05-30T07:58:22.083Z,28.79
2019-05-30T08:00:54.813Z,29.10
2019-05-30T08:03:28.381Z,29.41
2019-05-30T08:06:00.930Z,29.50
2019-05-30T08:08:33.958Z,29.41
2019-05-30T08:11:09.811Z,29.41
2019-05-30T08:13:39.411Z,29.45
2019-05-30T08:16:11.810Z,29.18
2019-05-30T08:18:45.111Z,29.18
2019-05-30T08:21:17.339Z,29.32
2019-05-30T08:23:49.995Z,29.57
2019-05-30T08:26:22.384Z,29.43
2019-05-30T08:28:54.706Z,29.43
2019-05-30T08:31:28.483Z,29.36
2019-05-30T08:34:00.978Z,29.70
2019-05-30T08:36:33.192Z,29.48
2019-05-30T08:39:08.792Z,29.93
2019-05-30T08:41:41.029Z,30.16
2019-05-30T08:44:13.194Z,30.15
2019-05-30T08:46:45.264Z,30.04
2019-05-30T08:49:17.260Z,30.23
2019-05-30T08:51:49.412Z,31.07
2019-05-30T08:54:21.517Z,31.38
2019-05-30T08:56:54.826Z,31.24
2019-05-30T08:59:28.865Z,31.74
2019-05-30T09:02:03.757Z,31.93
2019-05-30T09:04:35.936Z,31.61
2019-05-30T09:07:09.296Z,31.70
2019-05-30T09:09:44.369Z,31.84
2019-05-30T09:12:16.886Z,32.33
2019-05-30T09:14:49.421Z,32.19
2019-05-30T09:17:22.245Z,31.76
2019-05-30T09:19:55.085Z,31.57
2019-05-30T09:22:27.303Z,31.50
2019-05-30T09:24:59.971Z,31.85
2019-05-30T09:27:33.204Z,31.61
2019-05-30T09:30:10.245Z,31.24
2019-05-30T09:32:45.162Z,30.89
2019-05-30T09:35:19.817Z,30.66
2019-05-30T09:37:53.745Z,30.42
2019-05-30T09:40:28.372Z,30.66
2019-05-30T09:43:01.067Z,31.17
2019-05-30T09:45:33.924Z,31.95
2019-05-30T09:48:07.517Z,32.35
2019-05-30T09:50:42.009Z,32.93
2019-05-30T09:53:14.127Z,32.72
2019-05-30T09:55:48.271Z,32.58
2019-05-30T09:58:20.603Z,32.28
2019-05-30T10:00:54.564Z,32.25
2019-05-30T10:03:26.988Z,31.68
2019-05-30T10:05:59.414Z,31.40
2019-05-30T10:08:31.659Z,31.40
2019-05-30T10:11:03.912Z,31.10
2019-05-30T10:13:36.473Z,30.98
2019-05-30T10:16:11.028Z,31.45
2019-05-30T10:18:42.781Z,31.52
2019-05-30T10:21:15.299Z,31.94
2019-05-30T10:23:52.432Z,32.19
2019-05-30T10:26:24.702Z,33.32
2019-05-30T10:28:59.118Z,33.61
2019-05-30T10:31:31.711Z,34.02
2019-05-30T10:34:03.979Z,34.63
2019-05-30T10:36:44.188Z,35.31
2019-05-30T10:39:10.319Z,35.77
2019-05-30T10:41:42.421Z,36.24
2019-05-30T10:44:15.563Z,36.43
2019-05-30T10:46:48.977Z,37.57
2019-05-30T10:49:34.118Z,37.13
2019-05-30T10:51:59.117Z,37.47
2019-05-30T10:54:29.779Z,35.84
2019-05-30T10:57:02.235Z,35.80
2019-05-30T10:59:34.463Z,34.43
2019-05-30T11:02:08.228Z,34.11
2019-05-30T11:04:40.361Z,33.99
2019-05-30T11:07:36.667Z,34.89
2019-05-30T11:10:14.568Z,35.81
2019-05-30T11:12:48.059Z,36.30
2019-05-30T11:15:24.863Z,38.06
2019-05-30T11:17:58.170Z,38.07
2019-05-30T11:20:30.505Z,37.44
2019-05-30T11:23:02.988Z,36.16
2019-05-30T11:25:35.668Z,35.84
2019-05-30T11:28:08.332Z,36.57
2019-05-30T11:30:40.668Z,34.88
2019-05-30T11:33:14.396Z,34.12
2019-05-30T11:35:51.139Z,33.81
2019-05-30T11:38:24.815Z,33.33
2019-05-30T11:40:57.629Z,34.90
2019-05-30T11:43:31.323Z,36.60
2019-05-30T11:46:03.662Z,37.25
2019-05-30T11:48:35.811Z,38.41
2019-05-30T11:51:08.206Z,37.95
2019-05-30T11:53:41.543Z,37.52
2019-05-30T11:56:13.093Z,36.99
2019-05-30T11:58:45.979Z,36.99
2019-05-30T12:01:18.348Z,36.69
2019-05-30T12:03:52.600Z,36.56
2019-05-30T12:06:24.925Z,36.27
2019-05-30T12:08:57.244Z,35.43
2019-05-30T12:11:34.795Z,35.55
2019-05-30T12:14:13.091Z,34.97
2019-05-30T12:16:46.178Z,35.34
2019-05-30T12:19:18.424Z,35.60
2019-05-30T12:21:51.577Z,35.12
2019-05-30T12:24:24.728Z,34.46
2019-05-30T12:26:58.161Z,33.26
2019-05-30T12:29:30.501Z,33.44
2019-05-30T12:32:03.740Z,33.48
2019-05-30T12:34:37.142Z,33.81
2019-05-30T12:37:09.345Z,35.53
2019-05-30T12:39:41.548Z,37.76
2019-05-30T12:42:13.858Z,37.24
2019-05-30T12:44:47.235Z,37.60
2019-05-30T12:47:20.596Z,36.60
2019-05-30T12:49:53.634Z,35.87
2019-05-30T12:52:26.109Z,35.26
2019-05-30T12:55:00.898Z,34.18
2019-05-30T12:57:33.387Z,33.40
2019-05-30T13:00:17.351Z,33.36
2019-05-30T13:02:46.738Z,33.31
2019-05-30T13:05:21.327Z,33.19
2019-05-30T13:08:08.062Z,32.66
2019-05-30T13:10:28.194Z,31.96
2019-05-30T13:13:01.827Z,31.59
2019-05-30T13:15:34.063Z,31.97
2019-05-30T13:18:07.195Z,32.12
2019-05-30T13:20:39.790Z,34.12
2019-05-30T13:23:13.405Z,34.86
2019-05-30T13:25:45.037Z,34.98
2019-05-30T13:28:18.651Z,33.96
2019-05-30T13:30:51.132Z,33.16
2019-05-30T13:33:25.784Z,32.57
2019-05-30T13:35:58.889Z,32.29
2019-05-30T13:38:33.289Z,31.88
2019-05-30T13:41:05.679Z,31.68
2019-05-30T13:43:39.986Z,31.58
2019-05-30T13:46:12.290Z,31.61
2019-05-30T13:48:47.100Z,32.85
2019-05-30T13:51:19.408Z,35.43
2019-05-30T13:53:54.904Z,35.36
2019-05-30T13:56:26.943Z,35.40
2019-05-30T13:58:59.654Z,35.70
2019-05-30T14:01:33.491Z,34.26
2019-05-30T14:04:06.723Z,33.16
2019-05-30T14:06:41.689Z,31.55
2019-05-30T14:09:13.905Z,31.23
2019-05-30T14:11:46.051Z,30.67
2019-05-30T14:14:19.839Z,30.18
2019-05-30T14:16:52.601Z,30.13
2019-05-30T14:19:26.342Z,29.70
2019-05-30T14:22:03.387Z,29.73
2019-05-30T14:24:36.091Z,29.81
2019-05-30T14:27:09.620Z,29.83
2019-05-30T14:29:42.146Z,29.89
2019-05-30T14:32:14.604Z,29.77
2019-05-30T14:34:47.252Z,29.37
2019-05-30T14:37:19.935Z,29.32
2019-05-30T14:39:52.143Z,29.30
2019-05-30T14:42:24.246Z,29.33
2019-05-30T14:44:56.431Z,29.29
2019-05-30T14:47:29.091Z,29.11
2019-05-30T14:50:02.275Z,28.76
2019-05-30T14:52:34.663Z,28.72
2019-05-30T14:55:09.065Z,28.80
2019-05-30T14:57:41.467Z,28.76
2019-05-30T15:00:17.716Z,28.89
2019-05-30T15:02:50.142Z,29.05
2019-05-30T15:05:22.221Z,29.05
2019-05-30T15:07:56.373Z,29.11
2019-05-30T15:10:28.676Z,29.27
2019-05-30T15:13:00.821Z,29.34
2019-05-30T15:15:33.998Z,29.34
2019-05-30T15:18:07.207Z,29.50
2019-05-30T15:20:39.420Z,29.56
2019-05-30T15:23:13.707Z,29.40
2019-05-30T15:25:46.166Z,29.23
2019-05-30T15:28:18.543Z,29.18
2019-05-30T15:30:51.038Z,29.00
2019-05-30T15:33:23.596Z,29.02
2019-05-30T15:35:55.845Z,29.04
2019-05-30T15:38:28.005Z,29.03
2019-05-30T15:41:00.248Z,28.97
2019-05-30T15:43:32.884Z,29.04
2019-05-30T15:46:05.258Z,29.04
2019-05-30T15:48:37.485Z,29.14
2019-05-30T15:51:10.434Z,29.05
2019-05-30T15:53:43.296Z,29.05
2019-05-30T15:56:17.325Z,28.88
2019-05-30T15:58:49.744Z,28.98
2019-05-30T16:01:23.295Z,29.24
2019-05-30T16:03:55.612Z,29.16
2019-05-30T16:06:28.028Z,29.07
2019-05-30T16:09:02.378Z,28.99
2019-05-30T16:11:36.433Z,28.96
2019-05-30T16:14:09.255Z,28.67
2019-05-30T16:16:41.736Z,28.62
2019-05-30T16:19:20.160Z,28.60
2019-05-30T16:21:47.113Z,28.48
2019-05-30T16:24:21.432Z,28.39
2019-05-30T16:26:53.888Z,28.29
2019-05-30T16:29:26.083Z,28.20
2019-05-30T16:31:58.329Z,28.02
2019-05-30T16:34:32.773Z,27.94
2019-05-30T16:37:04.809Z,27.94
2019-05-30T16:39:37.674Z,27.89
2019-05-30T16:42:10.076Z,27.72
2019-05-30T16:44:42.610Z,27.55
2019-05-30T16:47:14.932Z,27.38
2019-05-30T16:49:48.519Z,27.29
2019-05-30T16:52:21.024Z,27.19
2019-05-30T16:54:53.042Z,27.14
2019-05-30T16:57:25.391Z,27.09
2019-05-30T16:59:58.016Z,27.02
2019-05-30T17:02:31.258Z,26.82
2019-05-30T17:05:05.103Z,26.63
2019-05-30T17:07:37.824Z,26.52
2019-05-30T17:10:23.527Z,26.48
2019-05-30T17:12:50.996Z,26.47
2019-05-30T17:15:24.142Z,26.69
2019-05-30T17:17:56.713Z,27.11
2019-05-30T17:20:29.354Z,27.16
2019-05-30T17:23:01.786Z,26.80
2019-05-30T17:25:34.302Z,26.42
2019-05-30T17:28:06.928Z,26.22
2019-05-30T17:30:39.981Z,26.04
2019-05-30T17:33:12.211Z,25.91
2019-05-30T17:35:46.555Z,25.82
2019-05-30T17:38:18.982Z,25.79
2019-05-30T17:40:51.313Z,25.75
2019-05-30T17:43:25.048Z,25.88
2019-05-30T17:45:59.460Z,25.85
2019-05-30T17:48:31.945Z,25.91
2019-05-30T17:51:05.256Z,25.82
2019-05-30T17:53:37.924Z,25.63
2019-05-30T17:56:11.851Z,25.52
2019-05-30T17:58:49.928Z,25.61
2019-05-30T18:01:22.533Z,25.55
2019-05-30T18:03:55.115Z,25.52
2019-05-30T18:06:28.644Z,25.84
2019-05-30T18:09:01.350Z,26.41
2019-05-30T18:11:37.498Z,26.55
2019-05-30T18:14:11.323Z,26.25
2019-05-30T18:16:44.314Z,25.73
2019-05-30T18:19:21.089Z,25.31
2019-05-30T18:21:53.715Z,24.99
2019-05-30T18:24:27.757Z,24.69
2019-05-30T18:27:00.405Z,24.46
2019-05-30T18:29:33.391Z,24.20
2019-05-30T18:32:05.771Z,24.05
2019-05-30T18:34:40.526Z,23.93
2019-05-30T18:37:15.359Z,23.85
2019-05-30T18:39:47.891Z,23.78
2019-05-30T18:42:22.973Z,23.72
2019-05-30T18:44:58.786Z,23.59
2019-05-30T18:47:31.484Z,23.53
2019-05-30T18:50:04.570Z,23.49
2019-05-30T18:52:37.146Z,23.43
2019-05-30T18:55:11.022Z,23.49
2019-05-30T18:57:43.397Z,23.66
2019-05-30T19:00:17.619Z,24.02
2019-05-30T19:02:50.346Z,24.02
2019-05-30T19:05:24.411Z,23.84
2019-05-30T19:07:57.950Z,23.64
2019-05-30T19:10:32.437Z,23.46
2019-05-30T19:13:07.239Z,23.34
2019-05-30T19:15:40.902Z,23.39
2019-05-30T19:18:13.492Z,23.46
2019-05-30T19:20:46.033Z,23.49
2019-05-30T19:23:18.942Z,23.45
2019-05-30T19:25:51.714Z,23.44
2019-05-30T19:28:24.553Z,23.26
2019-05-30T19:30:58.211Z,23.10
2019-05-30T19:33:30.888Z,22.99
2019-05-30T19:36:03.236Z,22.85
2019-05-30T19:38:35.821Z,22.89
2019-05-30T19:41:08.172Z,22.78
2019-05-30T19:43:40.575Z,22.78
2019-05-30T19:46:13.430Z,22.70
2019-05-30T19:48:47.771Z,22.74
2019-05-30T19:51:21.038Z,22.68
2019-05-30T19:53:53.300Z,23.08
2019-05-30T19:56:25.913Z,23.26
2019-05-30T19:58:58.533Z,23.32
2019-05-30T20:01:31.722Z,23.16
2019-05-30T20:04:04.758Z,23.09
2019-05-30T20:06:37.191Z,23.12
2019-05-30T20:09:09.869Z,23.04
2019-05-30T20:11:42.282Z,22.94
2019-05-30T20:14:18.237Z,23.00
2019-05-30T20:16:51.064Z,22.92
2019-05-30T20:19:24.336Z,22.85
2019-05-30T20:21:56.759Z,23.06
2019-05-30T20:24:29.392Z,23.16
2019-05-30T20:27:02.824Z,23.02
2019-05-30T20:29:35.297Z,22.81
2019-05-30T20:32:08.022Z,22.67
2019-05-30T20:34:40.965Z,22.48
2019-05-30T20:37:14.274Z,22.34
2019-05-30T20:39:47.277Z,22.28
2019-05-30T20:42:19.986Z,22.26
2019-05-30T20:44:52.784Z,22.21
2019-05-30T20:47:25.624Z,22.10
2019-05-30T20:49:57.879Z,22.04
2019-05-30T20:52:30.728Z,22.08
2019-05-30T20:55:03.452Z,22.01
2019-05-30T20:57:38.390Z,21.94
2019-05-30T21:00:12.457Z,22.04
2019-05-30T21:02:47.056Z,21.98
2019-05-30T21:05:19.633Z,22.16
2019-05-30T21:07:53.917Z,22.26
2019-05-30T21:10:26.368Z,22.17
2019-05-30T21:13:00.507Z,22.10
2019-05-30T21:15:35.299Z,22.06
2019-05-30T21:18:07.549Z,22.05
2019-05-30T21:20:40.092Z,21.94
2019-05-30T21:23:12.678Z,21.89
2019-05-30T21:25:45.550Z,21.84
2019-05-30T21:28:18.011Z,21.81
2019-05-30T21:30:50.755Z,21.78
2019-05-30T21:33:24.370Z,21.77
2019-05-30T21:35:57.082Z,21.77
2019-05-30T21:38:29.754Z,21.81
2019-05-30T21:41:02.467Z,21.81
2019-05-30T21:43:35.399Z,21.76
2019-05-30T21:46:07.643Z,21.73
2019-05-30T21:48:41.253Z,21.71
2019-05-30T21:51:14.746Z,21.68
2019-05-30T21:53:47.741Z,21.64
2019-05-30T21:56:20.425Z,21.55
2019-05-30T21:58:53.036Z,21.56
2019-05-30T22:01:29.005Z,21.50
2019-05-30T22:04:02.143Z,21.44
2019-05-30T22:06:34.754Z,21.49
2019-05-30T22:09:08.734Z,21.55
2019-05-30T22:11:41.703Z,21.70
2019-05-30T22:14:14.371Z,21.65
2019-05-30T22:16:50.133Z,21.86
2019-05-30T22:19:23.063Z,22.39
2019-05-30T22:21:55.521Z,22.30
2019-05-30T22:24:28.286Z,22.17
2019-05-30T22:27:00.566Z,21.92
2019-05-30T22:29:33.312Z,21.67
2019-05-30T22:32:06.826Z,21.49
2019-05-30T22:34:39.341Z,21.37
2019-05-30T22:37:11.929Z,21.27
2019-05-30T22:39:44.873Z,21.22
2019-05-30T22:42:17.657Z,21.28
2019-05-30T22:44:50.554Z,21.19
2019-05-30T22:47:23.061Z,21.10
2019-05-30T22:49:56.941Z,21.07
2019-05-30T22:52:30.427Z,21.08
2019-05-30T22:55:06.446Z,21.07
2019-05-30T22:57:38.685Z,21.03
2019-05-30T23:00:11.826Z,21.09
2019-05-30T23:02:44.092Z,21.00
2019-05-30T23:05:16.492Z,20.99
2019-05-30T23:07:49.403Z,20.94
2019-05-30T23:10:22.777Z,20.86
2019-05-30T23:12:56.049Z,20.84
2019-05-30T23:15:28.441Z,20.79
2019-05-30T23:18:02.564Z,20.73
2019-05-30T23:20:34.951Z,20.72
2019-05-30T23:23:07.217Z,20.75
2019-05-30T23:25:39.476Z,20.69
2019-05-30T23:28:12.041Z,20.67
2019-05-30T23:30:44.420Z,20.61
2019-05-30T23:33:16.899Z,20.57
2019-05-30T23:35:50.272Z,20.51
2019-05-30T23:38:22.758Z,20.80
2019-05-30T23:40:55.337Z,20.73
2019-05-30T23:43:27.605Z,20.67
2019-05-30T23:45:59.948Z,20.54
2019-05-30T23:48:32.375Z,20.44
2019-05-30T23:51:04.851Z,20.46
2019-05-30T23:53:38.233Z,20.43
2019-05-30T23:56:10.656Z,20.29
2019-05-30T23:58:42.910Z,20.19
